sensor_id;sensor_type;location;lat;lon;timestamp;temperature;humidity
40756;DHT22;26461;45.630;9.418;2023-10-09T00:00:10;22.90;49.00
40756;DHT22;26461;45.630;9.418;2023-10-09T00:03:39;22.90;49.90
40756;DHT22;26461;45.630;9.418;2023-10-09T00:06:50;22.80;49.50
40756;DHT22;26461;45.630;9.418;2023-10-09T00:10:01;22.70;49.60
40756;DHT22;26461;45.630;9.418;2023-10-09T00:13:22;22.70;50.00
40756;DHT22;26461;45.630;9.418;2023-10-09T00:16:39;22.60;50.10
40756;DHT22;26461;45.630;9.418;2023-10-09T00:19:58;22.60;50.40
40756;DHT22;26461;45.630;9.418;2023-10-09T00:23:09;22.60;50.40
40756;DHT22;26461;45.630;9.418;2023-10-09T00:26:20;22.50;50.50
40756;DHT22;26461;45.630;9.418;2023-10-09T00:29:30;22.50;50.70
40756;DHT22;26461;45.630;9.418;2023-10-09T00:32:45;22.40;50.80
40756;DHT22;26461;45.630;9.418;2023-10-09T00:36:03;22.30;50.90
40756;DHT22;26461;45.630;9.418;2023-10-09T00:39:27;22.30;50.90
40756;DHT22;26461;45.630;9.418;2023-10-09T00:42:50;22.30;51.00
40756;DHT22;26461;45.630;9.418;2023-10-09T00:46:07;22.20;51.20
40756;DHT22;26461;45.630;9.418;2023-10-09T00:49:53;22.20;51.40
40756;DHT22;26461;45.630;9.418;2023-10-09T00:53:08;22.20;51.40
40756;DHT22;26461;45.630;9.418;2023-10-09T00:56:22;22.20;51.30
40756;DHT22;26461;45.630;9.418;2023-10-09T00:59:35;22.30;51.70
40756;DHT22;26461;45.630;9.418;2023-10-09T01:02:48;22.30;50.90
40756;DHT22;26461;45.630;9.418;2023-10-09T01:06:18;22.30;50.80
40756;DHT22;26461;45.630;9.418;2023-10-09T01:09:30;22.30;50.60
40756;DHT22;26461;45.630;9.418;2023-10-09T01:12:41;22.30;50.50
40756;DHT22;26461;45.630;9.418;2023-10-09T01:15:48;22.30;50.00
40756;DHT22;26461;45.630;9.418;2023-10-09T01:18:58;22.30;50.10
40756;DHT22;26461;45.630;9.418;2023-10-09T01:22:11;22.30;50.20
40756;DHT22;26461;45.630;9.418;2023-10-09T01:25:24;22.30;50.00
40756;DHT22;26461;45.630;9.418;2023-10-09T01:28:29;22.30;49.70
40756;DHT22;26461;45.630;9.418;2023-10-09T01:31:39;22.20;49.70
40756;DHT22;26461;45.630;9.418;2023-10-09T01:34:48;22.20;49.70
40756;DHT22;26461;45.630;9.418;2023-10-09T01:37:59;22.20;49.40
40756;DHT22;26461;45.630;9.418;2023-10-09T01:41:11;22.20;49.10
40756;DHT22;26461;45.630;9.418;2023-10-09T01:44:26;22.20;48.80
40756;DHT22;26461;45.630;9.418;2023-10-09T01:47:37;22.20;48.50
40756;DHT22;26461;45.630;9.418;2023-10-09T01:50:47;22.30;48.40
40756;DHT22;26461;45.630;9.418;2023-10-09T01:53:58;22.30;48.20
40756;DHT22;26461;45.630;9.418;2023-10-09T01:57:09;22.30;47.80
40756;DHT22;26461;45.630;9.418;2023-10-09T02:00:22;22.30;47.60
40756;DHT22;26461;45.630;9.418;2023-10-09T02:03:34;22.30;47.40
40756;DHT22;26461;45.630;9.418;2023-10-09T02:06:46;22.30;47.20
40756;DHT22;26461;45.630;9.418;2023-10-09T02:10:01;22.30;46.80
40756;DHT22;26461;45.630;9.418;2023-10-09T02:13:11;22.40;46.70
40756;DHT22;26461;45.630;9.418;2023-10-09T02:16:21;22.40;46.70
40756;DHT22;26461;45.630;9.418;2023-10-09T02:19:38;22.40;46.80
40756;DHT22;26461;45.630;9.418;2023-10-09T02:22:50;22.40;46.70
40756;DHT22;26461;45.630;9.418;2023-10-09T02:25:58;22.40;46.60
40756;DHT22;26461;45.630;9.418;2023-10-09T02:29:11;22.40;46.20
40756;DHT22;26461;45.630;9.418;2023-10-09T02:32:24;22.40;46.10
40756;DHT22;26461;45.630;9.418;2023-10-09T02:35:38;22.40;45.80
40756;DHT22;26461;45.630;9.418;2023-10-09T02:38:48;22.40;45.40
40756;DHT22;26461;45.630;9.418;2023-10-09T02:41:58;22.40;45.30
40756;DHT22;26461;45.630;9.418;2023-10-09T02:45:11;22.50;45.30
40756;DHT22;26461;45.630;9.418;2023-10-09T02:48:20;22.50;45.10
40756;DHT22;26461;45.630;9.418;2023-10-09T02:51:35;22.50;45.10
40756;DHT22;26461;45.630;9.418;2023-10-09T02:54:53;22.50;45.20
40756;DHT22;26461;45.630;9.418;2023-10-09T02:58:18;22.60;45.00
40756;DHT22;26461;45.630;9.418;2023-10-09T03:01:31;22.60;45.10
40756;DHT22;26461;45.630;9.418;2023-10-09T03:04:40;22.60;45.10
40756;DHT22;26461;45.630;9.418;2023-10-09T03:07:46;22.60;44.90
40756;DHT22;26461;45.630;9.418;2023-10-09T03:10:51;22.60;45.80
40756;DHT22;26461;45.630;9.418;2023-10-09T03:14:01;22.50;47.20
40756;DHT22;26461;45.630;9.418;2023-10-09T03:17:09;22.50;47.40
40756;DHT22;26461;45.630;9.418;2023-10-09T03:20:16;22.30;47.70
40756;DHT22;26461;45.630;9.418;2023-10-09T03:23:27;22.20;48.20
40756;DHT22;26461;45.630;9.418;2023-10-09T03:26:37;22.10;48.70
40756;DHT22;26461;45.630;9.418;2023-10-09T03:29:42;22.00;49.20
40756;DHT22;26461;45.630;9.418;2023-10-09T03:32:59;21.80;49.30
40756;DHT22;26461;45.630;9.418;2023-10-09T03:36:10;21.70;49.70
40756;DHT22;26461;45.630;9.418;2023-10-09T03:39:15;21.60;50.30
40756;DHT22;26461;45.630;9.418;2023-10-09T03:42:29;21.50;50.20
40756;DHT22;26461;45.630;9.418;2023-10-09T03:45:35;21.50;50.20
40756;DHT22;26461;45.630;9.418;2023-10-09T03:48:48;21.50;50.00
40756;DHT22;26461;45.630;9.418;2023-10-09T03:51:59;21.50;49.90
40756;DHT22;26461;45.630;9.418;2023-10-09T03:55:09;21.50;50.10
40756;DHT22;26461;45.630;9.418;2023-10-09T03:58:20;21.40;50.00
40756;DHT22;26461;45.630;9.418;2023-10-09T04:01:26;21.30;50.30
40756;DHT22;26461;45.630;9.418;2023-10-09T04:04:34;21.20;50.40
40756;DHT22;26461;45.630;9.418;2023-10-09T04:07:40;21.20;50.40
40756;DHT22;26461;45.630;9.418;2023-10-09T04:10:46;21.20;50.50
40756;DHT22;26461;45.630;9.418;2023-10-09T04:13:58;21.30;50.30
40756;DHT22;26461;45.630;9.418;2023-10-09T04:17:05;21.30;50.20
40756;DHT22;26461;45.630;9.418;2023-10-09T04:20:34;21.30;50.40
40756;DHT22;26461;45.630;9.418;2023-10-09T04:23:45;21.30;50.50
40756;DHT22;26461;45.630;9.418;2023-10-09T04:27:19;21.20;50.60
40756;DHT22;26461;45.630;9.418;2023-10-09T04:30:31;21.20;50.70
40756;DHT22;26461;45.630;9.418;2023-10-09T04:33:50;21.10;50.90
40756;DHT22;26461;45.630;9.418;2023-10-09T04:37:20;21.10;50.90
40756;DHT22;26461;45.630;9.418;2023-10-09T04:40:41;21.10;51.00
40756;DHT22;26461;45.630;9.418;2023-10-09T04:43:55;21.10;51.10
40756;DHT22;26461;45.630;9.418;2023-10-09T04:47:24;21.10;51.20
40756;DHT22;26461;45.630;9.418;2023-10-09T04:50:35;21.10;51.20
40756;DHT22;26461;45.630;9.418;2023-10-09T04:53:41;21.20;51.50
40756;DHT22;26461;45.630;9.418;2023-10-09T04:56:58;21.20;51.20
40756;DHT22;26461;45.630;9.418;2023-10-09T05:00:11;21.10;50.70
40756;DHT22;26461;45.630;9.418;2023-10-09T05:03:48;21.10;50.90
40756;DHT22;26461;45.630;9.418;2023-10-09T05:07:01;21.00;50.80
40756;DHT22;26461;45.630;9.418;2023-10-09T05:10:26;21.00;51.40
40756;DHT22;26461;45.630;9.418;2023-10-09T05:13:33;21.00;51.00
40756;DHT22;26461;45.630;9.418;2023-10-09T05:16:47;20.90;51.50
40756;DHT22;26461;45.630;9.418;2023-10-09T05:20:06;20.80;52.00
40756;DHT22;26461;45.630;9.418;2023-10-09T05:23:30;20.70;52.10
40756;DHT22;26461;45.630;9.418;2023-10-09T05:26:50;20.70;51.80
40756;DHT22;26461;45.630;9.418;2023-10-09T05:29:55;20.80;51.70
40756;DHT22;26461;45.630;9.418;2023-10-09T05:33:17;20.70;51.90
40756;DHT22;26461;45.630;9.418;2023-10-09T05:36:38;20.60;52.00
40756;DHT22;26461;45.630;9.418;2023-10-09T05:39:44;20.50;52.00
40756;DHT22;26461;45.630;9.418;2023-10-09T05:43:03;20.50;52.30
40756;DHT22;26461;45.630;9.418;2023-10-09T05:46:11;20.50;52.40
40756;DHT22;26461;45.630;9.418;2023-10-09T05:49:20;20.50;52.20
40756;DHT22;26461;45.630;9.418;2023-10-09T05:52:35;20.60;52.70
40756;DHT22;26461;45.630;9.418;2023-10-09T05:55:43;20.60;52.00
40756;DHT22;26461;45.630;9.418;2023-10-09T05:58:56;20.70;51.80
40756;DHT22;26461;45.630;9.418;2023-10-09T06:02:16;20.70;51.70
40756;DHT22;26461;45.630;9.418;2023-10-09T06:05:57;20.70;51.30
40756;DHT22;26461;45.630;9.418;2023-10-09T06:09:12;20.70;51.20
40756;DHT22;26461;45.630;9.418;2023-10-09T06:12:20;20.80;51.00
40756;DHT22;26461;45.630;9.418;2023-10-09T06:15:38;20.80;50.80
40756;DHT22;26461;45.630;9.418;2023-10-09T06:19:00;20.80;50.60
40756;DHT22;26461;45.630;9.418;2023-10-09T06:22:22;20.80;50.60
40756;DHT22;26461;45.630;9.418;2023-10-09T06:25:47;20.90;50.70
40756;DHT22;26461;45.630;9.418;2023-10-09T06:29:13;20.90;50.60
40756;DHT22;26461;45.630;9.418;2023-10-09T06:32:41;20.90;50.70
40756;DHT22;26461;45.630;9.418;2023-10-09T06:35:55;20.90;50.60
40756;DHT22;26461;45.630;9.418;2023-10-09T06:39:01;20.90;50.60
40756;DHT22;26461;45.630;9.418;2023-10-09T06:42:25;21.00;51.40
40756;DHT22;26461;45.630;9.418;2023-10-09T06:45:55;21.00;51.10
40756;DHT22;26461;45.630;9.418;2023-10-09T06:49:03;21.00;51.40
40756;DHT22;26461;45.630;9.418;2023-10-09T06:52:28;21.10;51.80
40756;DHT22;26461;45.630;9.418;2023-10-09T06:55:58;21.10;52.20
40756;DHT22;26461;45.630;9.418;2023-10-09T06:59:15;21.10;52.10
40756;DHT22;26461;45.630;9.418;2023-10-09T07:02:26;21.20;51.90
40756;DHT22;26461;45.630;9.418;2023-10-09T07:05:32;21.20;52.00
40756;DHT22;26461;45.630;9.418;2023-10-09T07:08:54;21.20;52.00
40756;DHT22;26461;45.630;9.418;2023-10-09T07:12:11;21.30;52.00
40756;DHT22;26461;45.630;9.418;2023-10-09T07:15:35;21.30;51.80
40756;DHT22;26461;45.630;9.418;2023-10-09T07:18:59;21.40;52.30
40756;DHT22;26461;45.630;9.418;2023-10-09T07:22:15;21.50;52.90
40756;DHT22;26461;45.630;9.418;2023-10-09T07:25:28;21.50;52.40
40756;DHT22;26461;45.630;9.418;2023-10-09T07:28:46;21.60;52.20
40756;DHT22;26461;45.630;9.418;2023-10-09T07:31:58;21.70;52.20
40756;DHT22;26461;45.630;9.418;2023-10-09T07:35:17;21.70;52.10
40756;DHT22;26461;45.630;9.418;2023-10-09T07:38:46;21.80;52.10
40756;DHT22;26461;45.630;9.418;2023-10-09T07:42:05;21.80;51.90
40756;DHT22;26461;45.630;9.418;2023-10-09T07:45:37;21.90;51.90
40756;DHT22;26461;45.630;9.418;2023-10-09T07:48:44;21.90;51.80
40756;DHT22;26461;45.630;9.418;2023-10-09T07:52:03;22.00;51.70
40756;DHT22;26461;45.630;9.418;2023-10-09T07:55:16;22.10;51.60
40756;DHT22;26461;45.630;9.418;2023-10-09T07:58:47;22.10;51.60
40756;DHT22;26461;45.630;9.418;2023-10-09T08:01:57;22.10;51.50
40756;DHT22;26461;45.630;9.418;2023-10-09T08:05:07;22.20;51.80
40756;DHT22;26461;45.630;9.418;2023-10-09T08:08:23;22.20;51.60
40756;DHT22;26461;45.630;9.418;2023-10-09T08:11:33;22.20;51.10
40756;DHT22;26461;45.630;9.418;2023-10-09T08:14:56;22.20;50.30
40756;DHT22;26461;45.630;9.418;2023-10-09T08:18:21;22.30;49.70
40756;DHT22;26461;45.630;9.418;2023-10-09T08:21:36;22.30;48.80
40756;DHT22;26461;45.630;9.418;2023-10-09T08:24:52;22.30;48.80
40756;DHT22;26461;45.630;9.418;2023-10-09T08:28:12;22.30;48.90
40756;DHT22;26461;45.630;9.418;2023-10-09T08:31:52;22.40;49.10
40756;DHT22;26461;45.630;9.418;2023-10-09T08:35:06;22.40;48.60
40756;DHT22;26461;45.630;9.418;2023-10-09T08:38:35;22.50;48.50
40756;DHT22;26461;45.630;9.418;2023-10-09T08:41:46;22.50;48.20
40756;DHT22;26461;45.630;9.418;2023-10-09T08:44:51;22.60;48.50
40756;DHT22;26461;45.630;9.418;2023-10-09T08:47:57;22.60;48.70
40756;DHT22;26461;45.630;9.418;2023-10-09T08:51:02;22.60;48.60
40756;DHT22;26461;45.630;9.418;2023-10-09T08:54:16;22.70;48.80
40756;DHT22;26461;45.630;9.418;2023-10-09T08:57:21;22.70;48.30
40756;DHT22;26461;45.630;9.418;2023-10-09T09:00:32;22.80;48.40
40756;DHT22;26461;45.630;9.418;2023-10-09T09:03:39;22.80;48.50
40756;DHT22;26461;45.630;9.418;2023-10-09T09:07:27;22.80;48.30
40756;DHT22;26461;45.630;9.418;2023-10-09T09:10:44;22.80;48.30
40756;DHT22;26461;45.630;9.418;2023-10-09T09:14:04;22.90;48.30
40756;DHT22;26461;45.630;9.418;2023-10-09T09:17:09;22.90;48.10
40756;DHT22;26461;45.630;9.418;2023-10-09T09:20:25;22.90;48.20
40756;DHT22;26461;45.630;9.418;2023-10-09T09:23:54;22.90;48.10
40756;DHT22;26461;45.630;9.418;2023-10-09T09:27:06;23.00;48.40
40756;DHT22;26461;45.630;9.418;2023-10-09T09:30:27;23.00;49.20
40756;DHT22;26461;45.630;9.418;2023-10-09T09:33:39;23.10;49.50
40756;DHT22;26461;45.630;9.418;2023-10-09T09:36:58;23.10;48.80
40756;DHT22;26461;45.630;9.418;2023-10-09T09:40:04;23.10;48.40
40756;DHT22;26461;45.630;9.418;2023-10-09T09:43:29;23.20;48.40
40756;DHT22;26461;45.630;9.418;2023-10-09T09:46:40;23.20;48.60
40756;DHT22;26461;45.630;9.418;2023-10-09T09:49:53;23.20;49.10
40756;DHT22;26461;45.630;9.418;2023-10-09T09:53:04;23.20;49.70
40756;DHT22;26461;45.630;9.418;2023-10-09T09:56:20;23.30;50.50
40756;DHT22;26461;45.630;9.418;2023-10-09T09:59:38;23.40;50.20
40756;DHT22;26461;45.630;9.418;2023-10-09T10:02:58;23.40;50.50
40756;DHT22;26461;45.630;9.418;2023-10-09T10:06:05;23.50;51.00
40756;DHT22;26461;45.630;9.418;2023-10-09T10:09:40;23.50;50.80
40756;DHT22;26461;45.630;9.418;2023-10-09T10:16:06;23.60;50.10
40756;DHT22;26461;45.630;9.418;2023-10-09T10:19:17;23.70;49.80
40756;DHT22;26461;45.630;9.418;2023-10-09T10:22:26;23.70;49.80
40756;DHT22;26461;45.630;9.418;2023-10-09T10:25:37;23.70;49.90
40756;DHT22;26461;45.630;9.418;2023-10-09T10:29:17;23.80;50.40
40756;DHT22;26461;45.630;9.418;2023-10-09T10:32:54;23.80;50.40
40756;DHT22;26461;45.630;9.418;2023-10-09T10:36:06;23.90;50.40
40756;DHT22;26461;45.630;9.418;2023-10-09T10:39:11;24.00;50.40
40756;DHT22;26461;45.630;9.418;2023-10-09T10:42:31;24.00;50.00
40756;DHT22;26461;45.630;9.418;2023-10-09T10:45:43;24.10;49.90
40756;DHT22;26461;45.630;9.418;2023-10-09T10:48:54;24.10;50.10
40756;DHT22;26461;45.630;9.418;2023-10-09T10:52:05;24.20;50.30
40756;DHT22;26461;45.630;9.418;2023-10-09T10:55:23;24.20;49.80
40756;DHT22;26461;45.630;9.418;2023-10-09T10:58:54;24.20;49.10
40756;DHT22;26461;45.630;9.418;2023-10-09T11:02:10;24.30;48.10
40756;DHT22;26461;45.630;9.418;2023-10-09T11:05:15;24.40;48.70
40756;DHT22;26461;45.630;9.418;2023-10-09T11:08:28;24.40;48.20
40756;DHT22;26461;45.630;9.418;2023-10-09T11:11:37;24.40;48.30
40756;DHT22;26461;45.630;9.418;2023-10-09T11:14:51;24.50;47.80
40756;DHT22;26461;45.630;9.418;2023-10-09T11:18:18;24.60;46.80
40756;DHT22;26461;45.630;9.418;2023-10-09T11:21:28;24.60;47.40
40756;DHT22;26461;45.630;9.418;2023-10-09T11:24:36;24.70;47.30
40756;DHT22;26461;45.630;9.418;2023-10-09T11:27:41;24.80;47.10
40756;DHT22;26461;45.630;9.418;2023-10-09T11:31:06;24.90;47.20
40756;DHT22;26461;45.630;9.418;2023-10-09T11:34:18;24.90;46.50
40756;DHT22;26461;45.630;9.418;2023-10-09T11:37:38;25.00;46.90
40756;DHT22;26461;45.630;9.418;2023-10-09T11:40:52;25.10;46.70
40756;DHT22;26461;45.630;9.418;2023-10-09T11:43:57;25.10;46.70
40756;DHT22;26461;45.630;9.418;2023-10-09T11:47:03;25.10;46.90
40756;DHT22;26461;45.630;9.418;2023-10-09T11:50:43;25.20;47.20
40756;DHT22;26461;45.630;9.418;2023-10-09T11:53:59;25.30;46.70
40756;DHT22;26461;45.630;9.418;2023-10-09T11:57:05;25.30;47.00
40756;DHT22;26461;45.630;9.418;2023-10-09T12:00:15;25.40;47.10
40756;DHT22;26461;45.630;9.418;2023-10-09T12:03:44;25.40;47.00
40756;DHT22;26461;45.630;9.418;2023-10-09T12:06:54;25.50;47.40
40756;DHT22;26461;45.630;9.418;2023-10-09T12:10:11;25.50;46.70
40756;DHT22;26461;45.630;9.418;2023-10-09T12:13:23;25.60;47.50
40756;DHT22;26461;45.630;9.418;2023-10-09T12:16:29;25.70;47.30
40756;DHT22;26461;45.630;9.418;2023-10-09T12:19:43;25.70;47.00
40756;DHT22;26461;45.630;9.418;2023-10-09T12:22:53;25.80;47.10
40756;DHT22;26461;45.630;9.418;2023-10-09T12:25:59;25.80;46.20
40756;DHT22;26461;45.630;9.418;2023-10-09T12:29:05;25.90;46.80
40756;DHT22;26461;45.630;9.418;2023-10-09T12:32:16;26.00;46.60
40756;DHT22;26461;45.630;9.418;2023-10-09T12:35:29;26.10;45.90
40756;DHT22;26461;45.630;9.418;2023-10-09T12:38:44;26.20;44.80
40756;DHT22;26461;45.630;9.418;2023-10-09T12:41:53;26.30;44.10
40756;DHT22;26461;45.630;9.418;2023-10-09T12:45:03;26.30;43.50
40756;DHT22;26461;45.630;9.418;2023-10-09T12:48:18;26.40;43.20
40756;DHT22;26461;45.630;9.418;2023-10-09T12:51:28;26.50;41.80
40756;DHT22;26461;45.630;9.418;2023-10-09T12:54:37;26.60;42.10
40756;DHT22;26461;45.630;9.418;2023-10-09T12:57:48;26.70;42.40
40756;DHT22;26461;45.630;9.418;2023-10-09T13:00:54;26.70;41.70
40756;DHT22;26461;45.630;9.418;2023-10-09T13:03:59;26.80;40.60
40756;DHT22;26461;45.630;9.418;2023-10-09T13:07:10;26.90;40.70
40756;DHT22;26461;45.630;9.418;2023-10-09T13:10:17;27.00;39.70
40756;DHT22;26461;45.630;9.418;2023-10-09T13:13:22;27.10;39.60
40756;DHT22;26461;45.630;9.418;2023-10-09T13:16:28;27.10;40.00
40756;DHT22;26461;45.630;9.418;2023-10-09T13:19:33;27.20;40.20
40756;DHT22;26461;45.630;9.418;2023-10-09T13:22:39;27.30;40.10
40756;DHT22;26461;45.630;9.418;2023-10-09T13:25:51;27.40;40.40
40756;DHT22;26461;45.630;9.418;2023-10-09T13:29:04;27.50;39.70
40756;DHT22;26461;45.630;9.418;2023-10-09T13:32:19;27.60;39.80
40756;DHT22;26461;45.630;9.418;2023-10-09T13:35:30;27.60;39.70
40756;DHT22;26461;45.630;9.418;2023-10-09T13:38:43;27.70;39.00
40756;DHT22;26461;45.630;9.418;2023-10-09T13:41:58;27.80;39.10
40756;DHT22;26461;45.630;9.418;2023-10-09T13:45:08;27.90;39.40
40756;DHT22;26461;45.630;9.418;2023-10-09T13:48:20;27.90;39.00
40756;DHT22;26461;45.630;9.418;2023-10-09T13:51:28;28.00;37.60
40756;DHT22;26461;45.630;9.418;2023-10-09T13:54:39;28.00;37.60
40756;DHT22;26461;45.630;9.418;2023-10-09T13:57:49;28.10;36.50
40756;DHT22;26461;45.630;9.418;2023-10-09T14:00:54;28.20;36.60
40756;DHT22;26461;45.630;9.418;2023-10-09T14:04:01;28.30;36.70
40756;DHT22;26461;45.630;9.418;2023-10-09T14:07:06;28.30;37.50
40756;DHT22;26461;45.630;9.418;2023-10-09T14:10:11;28.40;37.10
40756;DHT22;26461;45.630;9.418;2023-10-09T14:13:27;28.50;35.90
40756;DHT22;26461;45.630;9.418;2023-10-09T14:16:39;28.50;36.40
40756;DHT22;26461;45.630;9.418;2023-10-09T14:19:47;28.60;36.30
40756;DHT22;26461;45.630;9.418;2023-10-09T14:22:59;28.60;35.90
40756;DHT22;26461;45.630;9.418;2023-10-09T14:26:16;28.70;36.60
40756;DHT22;26461;45.630;9.418;2023-10-09T14:29:28;28.70;36.50
40756;DHT22;26461;45.630;9.418;2023-10-09T14:32:38;28.80;36.80
40756;DHT22;26461;45.630;9.418;2023-10-09T14:35:48;28.80;36.20
40756;DHT22;26461;45.630;9.418;2023-10-09T14:38:54;28.80;36.00
40756;DHT22;26461;45.630;9.418;2023-10-09T14:42:06;28.90;36.10
40756;DHT22;26461;45.630;9.418;2023-10-09T14:45:19;28.90;36.60
40756;DHT22;26461;45.630;9.418;2023-10-09T14:48:26;28.90;36.40
40756;DHT22;26461;45.630;9.418;2023-10-09T14:51:31;29.00;36.50
40756;DHT22;26461;45.630;9.418;2023-10-09T14:54:41;29.00;36.10
40756;DHT22;26461;45.630;9.418;2023-10-09T14:57:54;29.00;36.30
40756;DHT22;26461;45.630;9.418;2023-10-09T15:01:07;29.00;36.60
40756;DHT22;26461;45.630;9.418;2023-10-09T15:04:14;29.00;36.70
40756;DHT22;26461;45.630;9.418;2023-10-09T15:07:19;29.00;36.40
40756;DHT22;26461;45.630;9.418;2023-10-09T15:10:31;28.90;36.60
40756;DHT22;26461;45.630;9.418;2023-10-09T15:13:41;28.90;37.00
40756;DHT22;26461;45.630;9.418;2023-10-09T15:16:51;28.80;37.20
40756;DHT22;26461;45.630;9.418;2023-10-09T15:20:01;28.80;37.40
40756;DHT22;26461;45.630;9.418;2023-10-09T15:23:07;28.70;37.70
40756;DHT22;26461;45.630;9.418;2023-10-09T15:26:18;28.70;38.00
40756;DHT22;26461;45.630;9.418;2023-10-09T15:29:28;28.70;38.40
40756;DHT22;26461;45.630;9.418;2023-10-09T15:32:40;28.70;39.10
40756;DHT22;26461;45.630;9.418;2023-10-09T15:35:46;28.70;38.80
40756;DHT22;26461;45.630;9.418;2023-10-09T15:38:57;28.70;38.90
40756;DHT22;26461;45.630;9.418;2023-10-09T15:42:10;28.70;38.70
40756;DHT22;26461;45.630;9.418;2023-10-09T15:45:18;28.70;38.50
40756;DHT22;26461;45.630;9.418;2023-10-09T15:48:26;28.70;39.20
40756;DHT22;26461;45.630;9.418;2023-10-09T15:51:36;28.70;38.50
40756;DHT22;26461;45.630;9.418;2023-10-09T15:54:41;28.60;38.50
40756;DHT22;26461;45.630;9.418;2023-10-09T15:57:53;28.60;38.40
40756;DHT22;26461;45.630;9.418;2023-10-09T16:00:59;28.50;38.20
40756;DHT22;26461;45.630;9.418;2023-10-09T16:04:04;28.50;38.30
40756;DHT22;26461;45.630;9.418;2023-10-09T16:07:16;28.50;38.50
40756;DHT22;26461;45.630;9.418;2023-10-09T16:10:26;28.40;38.40
40756;DHT22;26461;45.630;9.418;2023-10-09T16:13:32;28.40;38.50
40756;DHT22;26461;45.630;9.418;2023-10-09T16:16:37;28.40;38.70
40756;DHT22;26461;45.630;9.418;2023-10-09T16:19:51;28.30;38.70
40756;DHT22;26461;45.630;9.418;2023-10-09T16:22:56;28.30;38.90
40756;DHT22;26461;45.630;9.418;2023-10-09T16:26:06;28.30;39.00
40756;DHT22;26461;45.630;9.418;2023-10-09T16:29:12;28.20;39.10
40756;DHT22;26461;45.630;9.418;2023-10-09T16:32:18;28.10;39.20
40756;DHT22;26461;45.630;9.418;2023-10-09T16:35:31;28.10;40.00
40756;DHT22;26461;45.630;9.418;2023-10-09T16:38:45;28.00;39.80
40756;DHT22;26461;45.630;9.418;2023-10-09T16:41:57;27.90;39.90
40756;DHT22;26461;45.630;9.418;2023-10-09T16:45:03;27.80;40.20
40756;DHT22;26461;45.630;9.418;2023-10-09T16:48:14;27.80;40.60
40756;DHT22;26461;45.630;9.418;2023-10-09T16:51:21;27.70;40.70
40756;DHT22;26461;45.630;9.418;2023-10-09T16:54:29;27.60;41.00
40756;DHT22;26461;45.630;9.418;2023-10-09T16:57:36;27.60;41.10
40756;DHT22;26461;45.630;9.418;2023-10-09T17:00:48;27.50;41.30
40756;DHT22;26461;45.630;9.418;2023-10-09T17:03:59;27.40;41.50
40756;DHT22;26461;45.630;9.418;2023-10-09T17:07:13;27.30;41.70
40756;DHT22;26461;45.630;9.418;2023-10-09T17:10:22;27.30;42.00
40756;DHT22;26461;45.630;9.418;2023-10-09T17:13:30;27.20;42.10
40756;DHT22;26461;45.630;9.418;2023-10-09T17:16:41;27.10;42.30
40756;DHT22;26461;45.630;9.418;2023-10-09T17:19:46;27.10;42.60
40756;DHT22;26461;45.630;9.418;2023-10-09T17:22:54;27.10;42.70
40756;DHT22;26461;45.630;9.418;2023-10-09T17:26:09;27.00;42.90
40756;DHT22;26461;45.630;9.418;2023-10-09T17:29:15;26.90;43.10
40756;DHT22;26461;45.630;9.418;2023-10-09T17:32:21;26.80;43.20
40756;DHT22;26461;45.630;9.418;2023-10-09T17:35:31;26.80;43.40
40756;DHT22;26461;45.630;9.418;2023-10-09T17:38:36;26.70;43.60
40756;DHT22;26461;45.630;9.418;2023-10-09T17:41:46;26.70;43.80
40756;DHT22;26461;45.630;9.418;2023-10-09T17:44:57;26.60;43.90
40756;DHT22;26461;45.630;9.418;2023-10-09T17:48:08;26.60;44.00
40756;DHT22;26461;45.630;9.418;2023-10-09T17:51:18;26.50;44.10
40756;DHT22;26461;45.630;9.418;2023-10-09T17:54:28;26.50;44.00
40756;DHT22;26461;45.630;9.418;2023-10-09T17:57:39;26.40;43.90
40756;DHT22;26461;45.630;9.418;2023-10-09T18:00:44;26.40;43.90
40756;DHT22;26461;45.630;9.418;2023-10-09T18:03:55;26.30;44.10
40756;DHT22;26461;45.630;9.418;2023-10-09T18:07:08;26.20;44.40
40756;DHT22;26461;45.630;9.418;2023-10-09T18:10:18;26.20;44.50
40756;DHT22;26461;45.630;9.418;2023-10-09T18:13:23;26.00;44.60
40756;DHT22;26461;45.630;9.418;2023-10-09T18:16:37;26.00;44.90
40756;DHT22;26461;45.630;9.418;2023-10-09T18:19:42;25.90;45.20
40756;DHT22;26461;45.630;9.418;2023-10-09T18:22:49;25.80;45.60
40756;DHT22;26461;45.630;9.418;2023-10-09T18:26:00;25.70;45.40
40756;DHT22;26461;45.630;9.418;2023-10-09T18:29:06;25.70;45.20
40756;DHT22;26461;45.630;9.418;2023-10-09T18:32:14;25.70;45.20
40756;DHT22;26461;45.630;9.418;2023-10-09T18:35:24;25.70;45.30
40756;DHT22;26461;45.630;9.418;2023-10-09T18:38:33;25.70;45.50
40756;DHT22;26461;45.630;9.418;2023-10-09T18:41:44;25.60;45.70
40756;DHT22;26461;45.630;9.418;2023-10-09T18:44:49;25.50;46.20
40756;DHT22;26461;45.630;9.418;2023-10-09T18:48:03;25.40;46.60
40756;DHT22;26461;45.630;9.418;2023-10-09T18:51:12;25.30;47.00
40756;DHT22;26461;45.630;9.418;2023-10-09T18:54:18;25.30;47.10
40756;DHT22;26461;45.630;9.418;2023-10-09T18:57:28;25.30;47.20
40756;DHT22;26461;45.630;9.418;2023-10-09T19:00:33;25.20;46.90
40756;DHT22;26461;45.630;9.418;2023-10-09T19:03:50;25.10;46.80
40756;DHT22;26461;45.630;9.418;2023-10-09T19:06:56;25.00;47.00
40756;DHT22;26461;45.630;9.418;2023-10-09T19:10:02;25.00;47.30
40756;DHT22;26461;45.630;9.418;2023-10-09T19:13:07;24.90;47.30
40756;DHT22;26461;45.630;9.418;2023-10-09T19:16:20;24.90;47.50
40756;DHT22;26461;45.630;9.418;2023-10-09T19:19:31;24.80;48.10
40756;DHT22;26461;45.630;9.418;2023-10-09T19:22:39;24.70;48.60
40756;DHT22;26461;45.630;9.418;2023-10-09T19:25:45;24.60;48.90
40756;DHT22;26461;45.630;9.418;2023-10-09T19:28:56;24.60;49.10
40756;DHT22;26461;45.630;9.418;2023-10-09T19:32:06;24.50;49.40
40756;DHT22;26461;45.630;9.418;2023-10-09T19:35:13;24.40;49.60
40756;DHT22;26461;45.630;9.418;2023-10-09T19:38:19;24.40;49.70
40756;DHT22;26461;45.630;9.418;2023-10-09T19:41:29;24.40;49.70
40756;DHT22;26461;45.630;9.418;2023-10-09T19:44:35;24.30;49.60
40756;DHT22;26461;45.630;9.418;2023-10-09T19:47:48;24.30;49.60
40756;DHT22;26461;45.630;9.418;2023-10-09T19:51:03;24.20;49.70
40756;DHT22;26461;45.630;9.418;2023-10-09T19:54:08;24.10;49.90
40756;DHT22;26461;45.630;9.418;2023-10-09T19:57:14;24.20;49.90
40756;DHT22;26461;45.630;9.418;2023-10-09T20:00:19;24.20;50.10
40756;DHT22;26461;45.630;9.418;2023-10-09T20:03:27;24.10;50.00
40756;DHT22;26461;45.630;9.418;2023-10-09T20:06:37;24.20;50.10
40756;DHT22;26461;45.630;9.418;2023-10-09T20:09:44;24.20;50.10
40756;DHT22;26461;45.630;9.418;2023-10-09T20:12:50;24.20;50.10
40756;DHT22;26461;45.630;9.418;2023-10-09T20:15:56;24.20;50.20
40756;DHT22;26461;45.630;9.418;2023-10-09T20:19:04;24.20;50.30